createdAt,value
2022-09-13T00:00:49.670Z,17.40
2022-09-13T00:03:17.799Z,17.50
2022-09-13T00:05:45.805Z,17.50
2022-09-13T00:08:15.699Z,17.50
2022-09-13T00:10:45.100Z,17.60
2022-09-13T00:13:14.786Z,17.60
2022-09-13T00:15:45.935Z,17.60
2022-09-13T00:18:14.170Z,17.50
2022-09-13T00:20:42.581Z,17.50
2022-09-13T00:23:11.074Z,17.50
2022-09-13T00:25:41.208Z,17.50
2022-09-13T00:28:09.383Z,17.60
2022-09-13T00:30:37.445Z,17.60
2022-09-13T00:33:05.471Z,17.60
2022-09-13T00:35:33.835Z,17.70
2022-09-13T00:38:02.571Z,17.60
2022-09-13T00:40:31.115Z,17.60
2022-09-13T00:43:00.501Z,17.50
2022-09-13T00:45:28.691Z,17.60
2022-09-13T00:48:00.485Z,17.60
2022-09-13T00:50:32.924Z,17.50
2022-09-13T00:53:06.730Z,17.30
2022-09-13T00:55:40.280Z,17.30
2022-09-13T00:58:14.179Z,17.30
2022-09-13T01:00:42.443Z,17.30
2022-09-13T01:03:15.009Z,17.30
2022-09-13T01:05:47.533Z,17.30
2022-09-13T01:08:22.814Z,17.40
2022-09-13T01:10:53.044Z,17.50
2022-09-13T01:13:24.495Z,17.40
2022-09-13T01:15:52.997Z,17.40
2022-09-13T01:18:21.598Z,17.50
2022-09-13T01:21:32.769Z,17.50
2022-09-13T01:24:37.837Z,17.50
2022-09-13T01:27:22.559Z,17.40
2022-09-13T01:30:11.521Z,17.50
2022-09-13T01:33:14.863Z,17.50
2022-09-13T01:36:01.286Z,17.60
2022-09-13T01:38:50.990Z,17.60
2022-09-13T01:41:37.146Z,17.60
2022-09-13T01:44:13.691Z,17.60
2022-09-13T01:46:49.669Z,17.60
2022-09-13T01:49:25.594Z,17.60
2022-09-13T01:52:01.623Z,17.50
2022-09-13T01:54:38.007Z,17.50
2022-09-13T01:57:14.925Z,17.50
2022-09-13T01:59:50.990Z,17.50
2022-09-13T02:02:24.584Z,17.50
2022-09-13T02:04:57.376Z,17.50
2022-09-13T02:07:31.281Z,17.60
2022-09-13T02:10:03.690Z,17.60
2022-09-13T02:12:35.578Z,17.60
2022-09-13T02:15:09.177Z,17.70
2022-09-13T02:17:41.480Z,17.70
2022-09-13T02:20:14.963Z,17.80
2022-09-13T02:22:47.276Z,17.70
2022-09-13T02:25:19.420Z,17.70
2022-09-13T02:27:54.348Z,17.60
2022-09-13T02:30:23.308Z,17.60
2022-09-13T02:32:58.649Z,17.60
2022-09-13T02:35:32.432Z,17.50
2022-09-13T02:38:05.929Z,17.60
2022-09-13T02:40:40.524Z,17.50
2022-09-13T02:43:14.764Z,17.50
2022-09-13T02:45:48.084Z,17.60
2022-09-13T02:48:26.750Z,17.50
2022-09-13T02:51:01.074Z,17.50
2022-09-13T02:53:36.686Z,17.70
2022-09-13T02:56:12.843Z,17.80
2022-09-13T02:58:47.707Z,17.70
2022-09-13T03:01:16.269Z,17.70
2022-09-13T03:03:45.760Z,17.60
2022-09-13T03:06:14.023Z,17.60
2022-09-13T03:08:42.098Z,17.60
2022-09-13T03:11:18.638Z,17.60
2022-09-13T03:14:11.932Z,17.60
2022-09-13T03:16:54.198Z,17.70
2022-09-13T03:19:37.550Z,17.60
2022-09-13T03:22:19.426Z,17.60
2022-09-13T03:24:53.783Z,17.50
2022-09-13T03:27:31.272Z,17.40
2022-09-13T03:30:04.096Z,17.40
2022-09-13T03:32:39.397Z,17.30
2022-09-13T03:35:18.568Z,17.30
2022-09-13T03:37:53.593Z,17.20
2022-09-13T03:40:26.816Z,17.20
2022-09-13T03:43:02.659Z,17.30
2022-09-13T03:45:37.881Z,17.10
2022-09-13T03:48:07.888Z,17.10
2022-09-13T03:50:37.988Z,17.10
2022-09-13T03:53:10.020Z,17.10
2022-09-13T03:55:41.388Z,17.10
2022-09-13T03:58:13.005Z,17.10
2022-09-13T04:00:41.211Z,17.20
2022-09-13T04:03:10.082Z,17.20
2022-09-13T04:05:40.407Z,17.20
2022-09-13T04:08:09.128Z,17.10
2022-09-13T04:10:38.091Z,17.00
2022-09-13T04:13:08.835Z,17.10
2022-09-13T04:15:36.853Z,17.10
2022-09-13T04:18:05.614Z,17.20
2022-09-13T04:20:33.625Z,17.20
2022-09-13T04:23:03.039Z,17.20
2022-09-13T04:25:31.019Z,17.30
2022-09-13T04:28:00.028Z,17.10
2022-09-13T04:30:28.455Z,17.10
2022-09-13T04:32:59.444Z,17.00
2022-09-13T04:35:27.510Z,17.00
2022-09-13T04:37:57.858Z,17.10
2022-09-13T04:40:27.323Z,17.20
2022-09-13T04:42:55.365Z,17.20
2022-09-13T04:45:24.041Z,17.10
2022-09-13T04:47:53.800Z,17.00
2022-09-13T04:50:22.525Z,17.00
2022-09-13T04:52:51.029Z,17.00
2022-09-13T04:55:19.070Z,16.90
2022-09-13T04:57:48.479Z,17.00
2022-09-13T05:00:16.833Z,17.00
2022-09-13T05:02:44.814Z,17.10
2022-09-13T05:05:12.917Z,17.10
2022-09-13T05:07:40.907Z,17.10
2022-09-13T05:10:10.206Z,17.20
2022-09-13T05:12:38.219Z,17.20
2022-09-13T05:15:09.043Z,17.30
2022-09-13T05:17:37.089Z,17.20
2022-09-13T05:20:06.442Z,17.20
2022-09-13T05:22:34.471Z,17.10
2022-09-13T05:25:02.498Z,17.10
2022-09-13T05:27:30.460Z,17.20
2022-09-13T05:29:58.882Z,17.20
2022-09-13T05:32:28.313Z,17.20
2022-09-13T05:34:56.443Z,17.20
2022-09-13T05:37:24.495Z,17.30
2022-09-13T05:40:11.593Z,17.30
2022-09-13T05:42:40.418Z,17.30
2022-09-13T05:45:10.391Z,17.40
2022-09-13T05:47:39.744Z,17.50
2022-09-13T05:50:11.629Z,17.60
2022-09-13T05:52:44.116Z,17.60
2022-09-13T05:55:12.111Z,17.70
2022-09-13T05:57:40.124Z,17.70
2022-09-13T06:00:09.509Z,17.90
2022-09-13T06:02:42.423Z,17.80
2022-09-13T06:05:11.991Z,17.90
2022-09-13T06:07:43.910Z,17.90
2022-09-13T06:10:12.903Z,17.90
2022-09-13T06:12:41.035Z,17.90
2022-09-13T06:15:11.552Z,17.80
2022-09-13T06:17:41.145Z,17.90
2022-09-13T06:20:10.936Z,18.00
2022-09-13T06:22:39.223Z,18.20
2022-09-13T06:25:07.900Z,18.20
2022-09-13T06:27:36.166Z,18.30
2022-09-13T06:30:05.588Z,18.30
2022-09-13T06:32:33.992Z,18.30
2022-09-13T06:35:03.719Z,18.30
2022-09-13T06:37:31.750Z,18.30
2022-09-13T06:40:00.097Z,18.40
2022-09-13T06:42:28.167Z,18.50
2022-09-13T06:44:56.183Z,18.50
2022-09-13T06:47:24.372Z,18.40
2022-09-13T06:49:52.439Z,18.40
2022-09-13T06:52:21.880Z,18.50
2022-09-13T06:54:50.085Z,18.50
2022-09-13T06:57:18.444Z,18.50
2022-09-13T06:59:46.935Z,18.50
2022-09-13T07:02:15.701Z,18.60
2022-09-13T07:04:44.195Z,18.60
2022-09-13T07:07:12.310Z,18.60
2022-09-13T07:09:42.272Z,18.60
2022-09-13T07:12:10.312Z,18.70
2022-09-13T07:14:38.499Z,18.70
2022-09-13T07:17:06.525Z,18.80
2022-09-13T07:19:34.807Z,18.90
2022-09-13T07:22:02.848Z,19.00
2022-09-13T07:24:30.833Z,19.00
2022-09-13T07:27:00.183Z,19.10
2022-09-13T07:29:28.446Z,19.20
2022-09-13T07:31:58.583Z,19.30
2022-09-13T07:34:27.439Z,19.30
2022-09-13T07:36:56.054Z,19.30
2022-09-13T07:39:24.333Z,19.50
2022-09-13T07:41:53.984Z,19.60
2022-09-13T07:44:23.793Z,19.70
2022-09-13T07:46:51.788Z,19.70
2022-09-13T07:49:20.951Z,19.90
2022-09-13T07:51:51.324Z,20.00
2022-09-13T07:54:20.607Z,20.20
2022-09-13T07:56:50.285Z,20.10
2022-09-13T07:59:19.476Z,20.30
2022-09-13T08:01:50.559Z,20.20
2022-09-13T08:04:21.197Z,20.30
2022-09-13T08:06:49.962Z,20.30
2022-09-13T08:09:18.971Z,20.50
2022-09-13T08:11:49.506Z,20.60
2022-09-13T08:14:19.743Z,20.80
2022-09-13T08:16:49.365Z,20.80
2022-09-13T08:19:19.768Z,21.00
2022-09-13T08:21:48.306Z,21.00
2022-09-13T08:24:18.167Z,21.00
2022-09-13T08:26:47.624Z,21.10
2022-09-13T08:29:16.729Z,21.40
2022-09-13T08:31:45.058Z,21.40
2022-09-13T08:34:16.247Z,21.60
2022-09-13T08:36:45.070Z,21.40
2022-09-13T08:39:14.124Z,21.60
2022-09-13T08:41:59.616Z,21.70
2022-09-13T08:44:30.093Z,21.70
2022-09-13T08:47:05.380Z,21.90
2022-09-13T08:49:39.901Z,22.10
2022-09-13T08:52:28.178Z,22.10
2022-09-13T08:54:58.417Z,22.10
2022-09-13T08:57:33.447Z,22.20
2022-09-13T09:00:09.440Z,22.20
2022-09-13T09:02:53.916Z,22.30
2022-09-13T09:05:26.475Z,22.50
2022-09-13T09:07:59.982Z,22.50
2022-09-13T09:10:32.735Z,22.60
2022-09-13T09:13:07.528Z,22.80
2022-09-13T09:15:40.935Z,23.00
2022-09-13T09:18:14.281Z,23.00
2022-09-13T09:20:46.633Z,23.30
2022-09-13T09:23:21.395Z,23.60
2022-09-13T09:25:53.047Z,23.80
2022-09-13T09:28:21.243Z,23.70
2022-09-13T09:30:59.571Z,23.70
2022-09-13T09:33:43.385Z,23.90
2022-09-13T09:36:21.868Z,24.10
2022-09-13T09:38:49.904Z,24.20
2022-09-13T09:41:27.293Z,24.40
2022-09-13T09:44:02.438Z,24.40
2022-09-13T09:46:37.717Z,24.40
2022-09-13T09:49:35.714Z,24.20
2022-09-13T09:52:09.089Z,24.00
2022-09-13T09:54:39.037Z,24.40
2022-09-13T09:57:08.148Z,24.50
2022-09-13T09:59:37.137Z,24.80
2022-09-13T10:02:21.400Z,25.20
2022-09-13T10:04:57.850Z,25.50
2022-09-13T10:07:35.735Z,26.10
2022-09-13T10:10:08.967Z,25.90
2022-09-13T10:12:40.460Z,26.10
2022-09-13T10:15:17.923Z,26.70
2022-09-13T10:18:02.990Z,27.60
2022-09-13T10:20:31.640Z,29.30
2022-09-13T10:23:20.835Z,29.70
2022-09-13T10:26:08.392Z,30.00
2022-09-13T10:28:42.809Z,29.00
2022-09-13T10:31:17.065Z,29.10
2022-09-13T10:33:57.367Z,29.00
2022-09-13T10:36:50.710Z,29.90
2022-09-13T10:39:20.355Z,29.20
2022-09-13T10:41:53.799Z,29.00
2022-09-13T10:44:29.614Z,28.70
2022-09-13T10:46:58.832Z,28.90
2022-09-13T10:49:42.174Z,29.50
2022-09-13T10:52:34.355Z,29.20
2022-09-13T10:55:30.042Z,29.30
2022-09-13T10:58:18.347Z,29.40
2022-09-13T11:01:32.048Z,28.80
2022-09-13T11:04:30.090Z,28.00
2022-09-13T11:07:13.207Z,27.40
2022-09-13T11:09:49.463Z,27.40
2022-09-13T11:12:25.353Z,27.90
2022-09-13T11:15:04.159Z,28.30
2022-09-13T11:17:54.102Z,28.70
2022-09-13T11:20:35.906Z,29.00
2022-09-13T11:23:38.861Z,29.40
2022-09-13T11:26:23.642Z,29.40
2022-09-13T11:29:00.722Z,28.90
2022-09-13T11:31:42.295Z,29.30
2022-09-13T11:34:36.288Z,29.10
2022-09-13T11:37:19.695Z,28.90
2022-09-13T11:39:55.157Z,28.90
2022-09-13T11:42:38.685Z,29.00
2022-09-13T11:45:21.834Z,29.50
2022-09-13T11:48:05.216Z,29.90
2022-09-13T11:50:39.796Z,30.40
2022-09-13T11:53:40.506Z,30.80
2022-09-13T11:56:15.119Z,30.40
2022-09-13T11:58:50.025Z,29.90
2022-09-13T12:01:24.547Z,29.70
2022-09-13T12:04:00.958Z,28.70
2022-09-13T12:06:32.372Z,28.40
2022-09-13T12:09:06.902Z,28.80
2022-09-13T12:11:37.045Z,29.50
2022-09-13T12:14:07.667Z,30.00
2022-09-13T12:16:41.972Z,29.90
2022-09-13T12:19:18.321Z,30.60
2022-09-13T12:21:48.618Z,30.90
2022-09-13T12:24:21.220Z,31.10
2022-09-13T12:26:55.398Z,30.90
2022-09-13T12:29:30.440Z,30.50
2022-09-13T12:32:04.068Z,31.20
2022-09-13T12:34:41.667Z,31.60
2022-09-13T12:37:29.471Z,31.60
2022-09-13T12:40:23.458Z,30.60
2022-09-13T12:43:30.038Z,30.70
2022-09-13T12:46:20.227Z,30.40
2022-09-13T12:49:09.722Z,30.10
2022-09-13T12:51:52.592Z,29.90
2022-09-13T12:54:46.581Z,30.60
2022-09-13T12:57:29.071Z,31.10
2022-09-13T13:00:13.526Z,31.80
2022-09-13T13:02:45.496Z,30.70
2022-09-13T13:05:28.464Z,30.60
2022-09-13T13:07:59.760Z,30.30
2022-09-13T13:10:31.626Z,29.20
2022-09-13T13:13:12.982Z,29.70
2022-09-13T13:16:07.288Z,29.60
2022-09-13T13:18:47.002Z,29.40
2022-09-13T13:21:38.850Z,29.70
2022-09-13T13:24:49.331Z,29.30
2022-09-13T13:27:48.638Z,29.10
2022-09-13T13:30:41.162Z,28.00
2022-09-13T13:33:19.656Z,28.30
2022-09-13T13:35:48.848Z,27.90
2022-09-13T13:38:41.459Z,27.80
2022-09-13T13:41:44.767Z,27.60
2022-09-13T13:44:50.073Z,27.20
2022-09-13T13:47:52.137Z,27.10
2022-09-13T13:50:21.374Z,26.80
2022-09-13T13:52:55.943Z,26.40
2022-09-13T13:55:45.466Z,26.20
2022-09-13T13:58:32.101Z,26.30
2022-09-13T14:01:02.593Z,26.30
2022-09-13T14:03:49.246Z,26.40
2022-09-13T14:06:20.641Z,26.30
2022-09-13T14:09:06.493Z,26.50
2022-09-13T14:11:47.597Z,26.60
2022-09-13T14:14:29.939Z,26.50
2022-09-13T14:17:15.199Z,26.30
2022-09-13T14:19:45.146Z,26.10
2022-09-13T14:22:19.558Z,26.30
2022-09-13T14:24:48.788Z,26.30
2022-09-13T14:27:20.237Z,26.30
2022-09-13T14:29:52.996Z,26.50
2022-09-13T14:32:23.878Z,26.50
2022-09-13T14:34:58.290Z,26.50
2022-09-13T14:37:31.891Z,26.60
2022-09-13T14:40:03.294Z,26.70
2022-09-13T14:42:42.324Z,26.60
2022-09-13T14:45:17.488Z,26.40
2022-09-13T14:47:53.210Z,26.30
2022-09-13T14:50:25.894Z,26.20
2022-09-13T14:52:57.047Z,26.20
2022-09-13T14:55:30.950Z,26.10
2022-09-13T14:58:04.286Z,26.10
2022-09-13T15:00:36.671Z,26.00
2022-09-13T15:03:11.920Z,26.10
2022-09-13T15:05:40.621Z,26.10
2022-09-13T15:08:26.927Z,26.10
2022-09-13T15:10:58.290Z,26.00
2022-09-13T15:13:26.634Z,25.90
2022-09-13T15:15:56.912Z,25.80
2022-09-13T15:18:26.952Z,25.80
2022-09-13T15:20:58.109Z,25.70
2022-09-13T15:23:28.111Z,25.70
2022-09-13T15:25:58.304Z,25.70
2022-09-13T15:28:29.644Z,25.70
2022-09-13T15:31:01.268Z,25.50
2022-09-13T15:33:30.940Z,25.60
2022-09-13T15:36:17.398Z,25.50
2022-09-13T15:39:00.933Z,25.50
2022-09-13T15:41:34.690Z,25.30
2022-09-13T15:44:04.217Z,25.20
2022-09-13T15:46:35.765Z,25.20
2022-09-13T15:49:06.909Z,25.10
2022-09-13T15:51:39.046Z,25.00
2022-09-13T15:54:13.242Z,24.90
2022-09-13T15:56:44.582Z,24.90
2022-09-13T15:59:15.144Z,24.90
2022-09-13T16:01:45.493Z,24.70
2022-09-13T16:04:13.565Z,24.70
2022-09-13T16:06:42.219Z,24.60
2022-09-13T16:09:19.034Z,24.60
2022-09-13T16:14:37.008Z,24.60
2022-09-13T16:17:08.851Z,24.50
2022-09-13T16:19:36.847Z,24.40
2022-09-13T16:22:06.980Z,24.30
2022-09-13T16:24:37.954Z,24.30
2022-09-13T16:27:06.427Z,24.30
2022-09-13T16:29:34.412Z,24.20
2022-09-13T16:32:02.725Z,24.20
2022-09-13T16:34:32.239Z,24.10
2022-09-13T16:37:00.251Z,24.10
2022-09-13T16:39:29.162Z,24.00
2022-09-13T16:41:57.215Z,24.00
2022-09-13T16:44:25.353Z,23.90
2022-09-13T16:46:53.412Z,23.90
2022-09-13T16:49:21.637Z,23.80
2022-09-13T16:51:51.010Z,23.70
2022-09-13T16:54:19.068Z,23.70
2022-09-13T16:56:46.994Z,23.70
2022-09-13T16:59:14.985Z,23.60
2022-09-13T17:01:43.191Z,23.60
2022-09-13T17:04:11.470Z,23.50
2022-09-13T17:06:39.520Z,23.60
2022-09-13T17:09:09.407Z,23.50
2022-09-13T17:11:40.612Z,23.30
2022-09-13T17:14:10.915Z,23.30
2022-09-13T17:16:41.458Z,23.20
2022-09-13T17:19:13.342Z,23.10
2022-09-13T17:21:41.474Z,23.10
2022-09-13T17:24:13.608Z,23.00
2022-09-13T17:26:43.035Z,22.90
2022-09-13T17:29:12.964Z,22.80
2022-09-13T17:31:41.442Z,22.80
2022-09-13T17:34:10.100Z,22.60
2022-09-13T17:36:39.293Z,22.60
2022-09-13T17:39:07.928Z,22.60
2022-09-13T17:41:37.872Z,22.70
2022-09-13T17:44:06.168Z,22.60
2022-09-13T17:46:34.566Z,22.60
2022-09-13T17:49:02.810Z,22.50
2022-09-13T17:51:31.995Z,22.50
2022-09-13T17:54:02.242Z,22.40
2022-09-13T17:56:33.884Z,22.40
2022-09-13T17:59:10.206Z,22.30
2022-09-13T18:01:44.302Z,22.30
2022-09-13T18:04:13.499Z,22.20
2022-09-13T18:06:42.688Z,22.10
2022-09-13T18:09:11.437Z,22.10
2022-09-13T18:11:39.803Z,22.10
2022-09-13T18:14:12.220Z,22.00
2022-09-13T18:16:40.877Z,21.90
2022-09-13T18:19:09.148Z,21.90
2022-09-13T18:21:37.460Z,21.70
2022-09-13T18:24:06.789Z,21.70
2022-09-13T18:26:35.135Z,21.60
2022-09-13T18:29:05.313Z,21.70
2022-09-13T18:31:36.513Z,21.80
2022-09-13T18:34:06.692Z,21.60
2022-09-13T18:36:36.138Z,21.70
2022-09-13T18:39:05.613Z,21.60
2022-09-13T18:41:35.399Z,21.50
2022-09-13T18:44:05.326Z,21.40
2022-09-13T18:46:36.325Z,21.30
2022-09-13T18:49:05.662Z,21.30
2022-09-13T18:51:35.891Z,21.20
2022-09-13T18:54:04.828Z,21.10
2022-09-13T18:56:33.686Z,21.10
2022-09-13T18:59:03.396Z,21.10
2022-09-13T19:01:34.515Z,21.00
2022-09-13T19:04:05.130Z,20.90
2022-09-13T19:06:34.988Z,20.80
2022-09-13T19:09:04.391Z,20.80
2022-09-13T19:11:46.249Z,20.70
2022-09-13T19:14:17.778Z,20.70
2022-09-13T19:16:47.663Z,20.70
2022-09-13T19:19:16.494Z,20.70
2022-09-13T19:21:44.682Z,20.60
2022-09-13T19:24:19.869Z,20.60
2022-09-13T19:26:50.812Z,20.50
2022-09-13T19:29:21.211Z,20.50
2022-09-13T19:31:52.637Z,20.50
2022-09-13T19:34:22.679Z,20.40
2022-09-13T19:36:54.275Z,20.50
2022-09-13T19:39:27.042Z,20.50
2022-09-13T19:41:57.402Z,20.50
2022-09-13T19:44:25.424Z,20.50
2022-09-13T19:47:23.689Z,20.40
2022-09-13T19:49:43.648Z,20.40
2022-09-13T19:52:11.876Z,20.40
2022-09-13T19:54:40.468Z,20.50
2022-09-13T19:57:09.863Z,20.40
2022-09-13T19:59:38.057Z,20.40
2022-09-13T20:02:07.671Z,20.30
2022-09-13T20:04:35.864Z,20.30
2022-09-13T20:07:04.024Z,20.30
2022-09-13T20:09:32.189Z,20.40
2022-09-13T20:12:01.413Z,20.30
2022-09-13T20:14:29.799Z,20.30
2022-09-13T20:16:58.953Z,20.30
2022-09-13T20:19:49.697Z,20.30
2022-09-13T20:22:16.701Z,20.30
2022-09-13T20:24:44.895Z,20.30
2022-09-13T20:27:13.394Z,20.30
2022-09-13T20:29:41.542Z,20.30
2022-09-13T20:32:10.979Z,20.30
2022-09-13T20:34:40.468Z,20.30
2022-09-13T20:37:08.602Z,20.30
2022-09-13T20:39:36.751Z,20.20
2022-09-13T20:42:04.976Z,20.10
2022-09-13T20:44:32.988Z,20.00
2022-09-13T20:47:01.788Z,19.90
2022-09-13T20:49:30.205Z,19.80
2022-09-13T20:51:59.951Z,19.80
2022-09-13T20:54:28.172Z,19.70
2022-09-13T20:56:56.312Z,19.60
2022-09-13T20:59:24.509Z,19.60
2022-09-13T21:01:52.546Z,19.50
2022-09-13T21:04:20.974Z,19.50
2022-09-13T21:07:14.650Z,19.40
2022-09-13T21:09:44.682Z,19.40
2022-09-13T21:12:14.332Z,19.20
2022-09-13T21:14:42.590Z,19.20
2022-09-13T21:17:10.747Z,19.10
2022-09-13T21:19:38.911Z,19.00
2022-09-13T21:22:07.009Z,19.00
2022-09-13T21:24:35.096Z,19.00
2022-09-13T21:27:04.997Z,19.00
2022-09-13T21:29:34.109Z,18.90
2022-09-13T21:32:02.368Z,18.90
2022-09-13T21:34:30.500Z,18.70
2022-09-13T21:36:58.497Z,18.60
2022-09-13T21:39:26.760Z,18.60
2022-09-13T21:41:54.766Z,18.60
2022-09-13T21:44:24.140Z,18.50
2022-09-13T21:46:52.517Z,18.50
2022-09-13T21:49:20.605Z,18.50
2022-09-13T21:51:50.147Z,18.50
2022-09-13T21:54:20.208Z,18.50
2022-09-13T21:56:53.771Z,18.30
2022-09-13T21:59:24.754Z,18.30
2022-09-13T22:01:54.109Z,18.20
2022-09-13T22:04:24.658Z,18.20
2022-09-13T22:06:53.690Z,18.20
2022-09-13T22:09:23.143Z,18.20
2022-09-13T22:11:51.281Z,18.20
2022-09-13T22:14:21.869Z,18.10
2022-09-13T22:16:52.620Z,18.00
2022-09-13T22:19:22.284Z,18.10
2022-09-13T22:21:53.838Z,18.00
2022-09-13T22:24:23.789Z,18.00
2022-09-13T22:26:53.267Z,17.90
2022-09-13T22:29:22.260Z,17.90
2022-09-13T22:31:52.654Z,17.90
2022-09-13T22:34:22.206Z,17.80
2022-09-13T22:36:50.202Z,17.80
2022-09-13T22:39:18.528Z,17.80
2022-09-13T22:41:47.044Z,17.80
2022-09-13T22:44:15.456Z,17.90
2022-09-13T22:46:45.738Z,18.00
2022-09-13T22:49:17.157Z,17.90
2022-09-13T22:51:45.895Z,17.90
2022-09-13T22:54:14.916Z,17.80
2022-09-13T22:56:43.235Z,17.70
2022-09-13T22:59:14.984Z,17.70
2022-09-13T23:01:43.814Z,17.60
2022-09-13T23:04:12.718Z,17.70
2022-09-13T23:06:44.786Z,17.70
2022-09-13T23:09:15.464Z,17.60
2022-09-13T23:11:43.719Z,17.60
2022-09-13T23:14:13.721Z,17.60
2022-09-13T23:16:43.601Z,17.60
2022-09-13T23:19:12.876Z,17.60
2022-09-13T23:21:43.036Z,17.50
2022-09-13T23:24:14.657Z,17.50
2022-09-13T23:26:43.388Z,17.50
2022-09-13T23:29:13.142Z,17.60
2022-09-13T23:31:42.496Z,17.70
2022-09-13T23:34:11.702Z,17.70
2022-09-13T23:36:43.109Z,17.70
2022-09-13T23:43:04.695Z,17.70
2022-09-13T23:45:32.858Z,17.70
2022-09-13T23:48:00.923Z,17.70
2022-09-13T23:50:28.938Z,17.70
2022-09-13T23:52:58.295Z,17.60
2022-09-13T23:55:26.300Z,17.60
2022-09-13T23:57:54.326Z,17.60
